x

Long Island - 30 Nm South Of Islip, Ny (44025) Wave Buoy

10:50pm - Mon 27th Apr 2015 All times are EDT. -4 hours from GMT.

  • Sig Wave height 2.0ft
  • Swell Direction
  • Peak Period 9s
  • Average Period 4s
  • Wind
    16mph, 20mph gusts
  • Sea Temp 44°f
  • Air Temp 50°f
  • Sea Pressure 1005mb
  • Long Island - 30 Nm South Of Islip, Ny
  • Long Island - 30 Nm South Of Islip, Ny

More Historic Weather Station data

Upgrade to MSW Pro to gain access to the past 30 days of data for over 8000 Wavebouys and Weather Stations around the globe.

Join Pro

Comparision Forecast

View Surf forecast
   
Mon 04/27 10:50pm 2ft 9s 4s 16 20 mph 1005mb 44f 50f
9:50pm 2ft 9s 4s 13 16 mph 1004.9mb 44f 49f
8:50pm 2ft 8s 4s 13 16 mph 1004.5mb 44f 49f
7:50pm 1.6ft 9s 4s 11 13 mph 1004.1mb 45f 49f
6:50pm 1.6ft 8s 4s 13 16 mph 1003.6mb 45f 49f
5:50pm 1.6ft 9s 5s 11 13 mph 1003.3mb 45f 49f
4:50pm 1.6ft 9s 4s 11 13 mph 1003.2mb 45f 48f
3:50pm 1.6ft 10s 4s 13
mph
1003.5mb 45f 48f
2:50pm 1.6ft 9s 5s 13
mph
1004.1mb 45f 47f
1:50pm 1.6ft 10s 5s 11
mph
1004.3mb 44f 47f
12:50pm 1.6ft 9s 5s 11
mph
1004.6mb 44f 47f
11:50am 2ft 8s 5s 9 11 mph 1005mb 44f 46f
10:50am 1.6ft 8s 4s 9 11 mph 1005.1mb 44f 46f
9:50am 1.6ft 9s 5s 11 13 mph 1004.7mb 44f 46f
8:50am 1.6ft 9s 5s 9 11 mph 1004.7mb 44f 46f
7:50am 1.6ft 10s 5s 9
mph
1004.3mb 44f 45f
6:50am 1.6ft 9s 5s 9
mph
1004.2mb 44f 45f
5:50am 1.6ft 11s 5s 11 13 mph 1004mb 44f 46f
4:50am 1.6ft 9s 4s 11
mph
1004.1mb 44f 46f
3:50am 1.6ft 10s 5s 11
mph
1004.1mb 44f 46f
2:50am 2ft 3s 4s 11
mph
1004.4mb 44f 46f
1:50am 2ft 10s 4s 11 13 mph 1004.7mb 44f 46f
12:50am 2ft 11s 4s 13 18 mph 1004.8mb 44f 47f
Sun 04/26 11:50pm 2ft 11s 4s 16 18 mph 1004.6mb 44f 47f
10:50pm 1.3ft 11s 4s 13 16 mph 1004.8mb 44f 47f
9:50pm 1.3ft 11s 5s 13 16 mph 1004.9mb 44f 47f
8:50pm 1ft 11s 5s 11
mph
1004.8mb 45f 46f
7:50pm 1ft 11s 5s 9
mph
1004.7mb 45f 46f
6:50pm 1ft 11s 6s 9 11 mph 1004.6mb 46f 46f
5:50pm 1ft 11s 5s 7
mph
1004.6mb 46f 47f
4:50pm 1ft 11s 6s 9
mph
1004.6mb 46f 47f
3:50pm 1ft 11s 5s 7
mph
1005.1mb 47f 47f
2:50pm 1ft 11s 5s 4 7 mph 1005.3mb 47f 47f
1:50pm 1.3ft 11s 4s 2 4 mph 1005.3mb 47f 46f
12:50pm 1.3ft 11s 4s  -  mph 1005.4mb 47f 46f
11:50am 1.3ft 11s 4s  -  2 mph 1005.9mb 44f 44f
10:50am 1.3ft 11s 4s 7
mph
1006mb 43f 44f
9:50am 1.6ft 3s 3s 9 11 mph 1005.8mb 43f 44f
8:50am 2ft 3s 3s 13 16 mph 1005.7mb 43f 44f
7:50am 1.6ft 3s 3s 13 16 mph 1005.1mb 43f 44f
6:50am 1.6ft 5s 3s 13 16 mph 1004.8mb 43f 45f
5:50am 1.3ft 5s 4s 13 18 mph 1004.4mb 43f 44f
4:50am 1.6ft 5s 4s 7 9 mph 1004.1mb 43f 44f
3:50am 2ft 5s 4s  -  mph 1004.3mb 43f 43f
2:50am 2ft 5s 4s  -  mph 1004.4mb 43f 44f
1:50am 2ft 5s 4s 2 4 mph 1004.7mb 43f 45f
12:50am 2ft 5s 4s 7 9 mph 1005.4mb 43f 45f
Sat 04/25 11:50pm 2ft 4s 4s 11 13 mph 1005.4mb 43f 45f
10:50pm 2.5ft 5s 4s 13 16 mph 1005.8mb 43f 45f
9:50pm 2.5ft 4s 4s 13 16 mph 1006.2mb 43f 45f
8:50pm 2.5ft 4s 4s 16 18 mph 1006.6mb 43f 45f
7:50pm 2.5ft 4s 4s 16 18 mph 1006.8mb 43f 45f
6:50pm 1.6ft 3s 3s 16 18 mph 1006.6mb 43f 45f
5:50pm 1.3ft 3s 3s 16 20 mph 1006.9mb 43f 44f
4:50pm 1.3ft 3s 3s 13 16 mph 1007.4mb 43f 45f
3:50pm 1.6ft 4s 3s 13 16 mph 1007.8mb 43f 44f
2:50pm 2ft 4s 4s 16 18 mph 1009mb 43f 44f
1:50pm 2ft 4s 4s 13 18 mph 1009.8mb 43f 44f
12:50pm 2.5ft 4s 4s 13 16 mph 1010.4mb 43f 43f
11:50am 2.5ft 5s 4s 16 20 mph 1011.3mb 43f 42f
10:50am 3.5ft 5s 4s 18 20 mph 1011.5mb 43f 41f
9:50am 3.5ft 5s 4s 20 22 mph 1011.6mb 43f 40f
8:50am 3.5ft 5s 4s 20 22 mph 1011.9mb 43f 40f
7:50am 4ft 5s 4s 20 25 mph 1012.7mb 43f 40f
6:50am 4ft 5s 4s 20 25 mph 1012.5mb 43f 40f
5:50am 3.5ft 5s 4s 22 27 mph 1012.5mb 43f 40f
4:50am 3ft 4s 4s 22 27 mph 1012mb 43f 41f
3:50am 2.5ft 5s 4s 18 20 mph 1012.3mb 43f 40f
2:50am 3ft 5s 4s 16 18 mph 1012.6mb 43f 40f
1:50am 4.5ft 5s 4s 18 20 mph 1012.6mb 43f 40f
12:50am 4.5ft 5s 4s 22 27 mph 1012.8mb 43f 41f
Fri 04/24 11:50pm 5ft 5s 4s 25 29 mph 1012.5mb 43f 41f
10:50pm 5ft 5s 5s 27 31 mph 1012.2mb 43f 41f
9:50pm 5ft 6s 5s 27 34 mph 1011.9mb 43f 42f
8:50pm 4.5ft 6s 4s 27 34 mph 1011.7mb 43f 43f
7:50pm 4ft 5s 4s 27 31 mph 1010.8mb 43f 44f
6:50pm 3ft 4s 4s 22 27 mph 1010.5mb 43f 45f
5:50pm 2.5ft 4s 4s 16 18 mph 1010.6mb 43f 44f
4:50pm 2.5ft 4s 4s 11 16 mph 1010.6mb 43f 44f
3:50pm 2.5ft 5s 4s 16 18 mph 1010.2mb 43f 43f
2:50pm 3.5ft 5s 4s 16 20 mph 1010.3mb 43f 42f
1:50pm 3.5ft 5s 4s 20 25 mph 1010.4mb 43f 42f
12:50pm 4ft 5s 4s 22 29 mph 1010.3mb 43f 41f
11:50am 4.5ft 5s 4s 20 25 mph 1010.6mb 43f 40f
10:50am 4.5ft 6s 5s 22 27 mph 1010.8mb 43f 39f
9:50am 4.5ft 6s 5s 22 29 mph 1011mb 43f 39f
8:50am 4.5ft 6s 5s 22 29 mph 1011mb 43f 39f
7:50am 4.5ft 6s 5s 22 27 mph 1011.1mb 43f 40f
6:50am 4.5ft 5s 4s 22 27 mph 1010.7mb 43f 40f
5:50am 4.5ft 5s 4s 25 31 mph 1010.2mb 43f 40f
4:50am 4.5ft 5s 4s 25 29 mph 1009.7mb 43f 40f